createdAt,value
2019-01-11T00:01:28.033Z,100742.30
2019-01-11T00:03:01.011Z,100738.45
2019-01-11T00:04:34.027Z,100728.21
2019-01-11T00:06:07.070Z,100717.49
2019-01-11T00:07:39.954Z,100716.34
2019-01-11T00:09:13.636Z,100718.87
2019-01-11T00:10:47.682Z,100715.84
2019-01-11T00:12:21.377Z,100716.34
2019-01-11T00:13:55.232Z,100716.66
2019-01-11T00:15:28.354Z,100705.58
2019-01-11T00:17:01.154Z,100706.78
2019-01-11T00:18:35.254Z,100700.08
2019-01-11T00:20:08.108Z,100686.83
2019-01-11T00:21:41.791Z,100689.69
2019-01-11T00:23:14.743Z,100689.36
2019-01-11T00:24:47.696Z,100677.45
2019-01-11T00:26:20.420Z,100684.00
2019-01-11T00:27:53.211Z,100676.94
2019-01-11T00:29:27.013Z,100676.24
2019-01-11T00:31:00.709Z,100676.38
2019-01-11T00:32:34.389Z,100682.93
2019-01-11T00:34:08.302Z,100677.90
2019-01-11T00:35:41.500Z,100673.89
2019-01-11T00:37:14.359Z,100676.06
2019-01-11T00:38:48.054Z,100689.64
2019-01-11T00:40:21.669Z,100675.41
2019-01-11T00:41:55.389Z,100667.74
2019-01-11T00:43:29.184Z,100680.25
2019-01-11T00:45:02.132Z,100676.89
2019-01-11T00:46:36.180Z,100671.72
2019-01-11T00:48:09.168Z,100667.18
2019-01-11T00:49:43.826Z,100662.84
2019-01-11T00:51:16.615Z,100657.81
2019-01-11T00:52:49.577Z,100667.69
2019-01-11T00:54:23.524Z,100667.19
2019-01-11T00:55:56.732Z,100668.86
2019-01-11T00:57:30.606Z,100666.02
2019-01-11T00:59:03.394Z,100660.80
2019-01-11T01:00:38.459Z,100655.77
2019-01-11T01:02:12.278Z,100654.38
2019-01-11T01:03:46.201Z,100640.21
2019-01-11T01:05:21.011Z,100649.08
2019-01-11T01:06:55.262Z,100634.02
2019-01-11T01:08:30.596Z,100636.18
2019-01-11T01:10:01.937Z,100639.19
2019-01-11T01:11:34.783Z,100629.34
2019-01-11T01:13:08.551Z,100623.61
2019-01-11T01:14:42.443Z,100614.56
2019-01-11T01:16:16.067Z,100610.86
2019-01-11T01:17:48.815Z,100609.20
2019-01-11T01:19:21.666Z,100598.02
2019-01-11T01:20:55.473Z,100601.53
2019-01-11T01:22:29.336Z,100598.80
2019-01-11T01:24:03.447Z,100608.67
2019-01-11T01:25:36.955Z,100597.64
2019-01-11T01:27:09.847Z,100591.32
2019-01-11T01:28:43.592Z,100586.09
2019-01-11T01:30:17.568Z,100582.03
2019-01-11T01:31:51.444Z,100580.73
2019-01-11T01:33:25.189Z,100585.41
2019-01-11T01:34:58.906Z,100581.38
2019-01-11T01:36:31.902Z,100581.05
2019-01-11T01:38:05.759Z,100581.05
2019-01-11T01:39:39.492Z,100579.70
2019-01-11T01:41:13.310Z,100574.30
2019-01-11T01:42:47.095Z,100565.13
2019-01-11T01:44:23.168Z,100560.25
2019-01-11T01:45:56.942Z,100550.17
2019-01-11T01:47:29.947Z,100553.23
2019-01-11T01:49:03.904Z,100550.73
2019-01-11T01:50:38.813Z,100546.55
2019-01-11T01:52:11.643Z,100547.68
2019-01-11T01:53:44.561Z,100556.57
2019-01-11T01:55:17.304Z,100545.64
2019-01-11T01:56:50.167Z,100547.81
2019-01-11T01:58:22.838Z,100541.44
2019-01-11T01:59:57.248Z,100540.09
2019-01-11T02:01:31.205Z,100541.11
2019-01-11T02:03:04.660Z,100540.47
2019-01-11T02:04:37.637Z,100540.80
2019-01-11T02:06:10.529Z,100531.28
2019-01-11T02:07:43.435Z,100531.22
2019-01-11T02:09:16.219Z,100522.36
2019-01-11T02:10:49.310Z,100517.50
2019-01-11T02:12:24.071Z,100512.66
2019-01-11T02:13:57.984Z,100514.00
2019-01-11T02:15:33.596Z,100510.80
2019-01-11T02:17:06.317Z,100506.59
2019-01-11T02:18:39.341Z,100509.59
2019-01-11T02:20:13.224Z,100493.52
2019-01-11T02:21:46.430Z,100498.23
2019-01-11T02:23:20.182Z,100499.23
2019-01-11T02:24:54.177Z,100492.55
2019-01-11T02:26:28.035Z,100490.70
2019-01-11T02:28:01.897Z,100492.53
2019-01-11T02:29:35.708Z,100494.70
2019-01-11T02:31:09.498Z,100492.28
2019-01-11T02:32:42.562Z,100487.41
2019-01-11T02:34:16.537Z,100490.41
2019-01-11T02:35:50.154Z,100485.37
2019-01-11T02:37:23.950Z,100483.84
2019-01-11T02:38:57.847Z,100474.96
2019-01-11T02:40:31.735Z,100466.73
2019-01-11T02:42:06.253Z,100465.17
2019-01-11T02:43:39.031Z,100460.32
2019-01-11T02:45:11.900Z,100460.64
2019-01-11T02:46:44.914Z,100457.31
2019-01-11T02:48:17.675Z,100451.77
2019-01-11T02:49:50.695Z,100458.28
2019-01-11T02:51:25.600Z,100442.51
2019-01-11T02:52:59.841Z,100446.66
2019-01-11T02:54:32.774Z,100429.94
2019-01-11T02:56:06.673Z,100435.71
2019-01-11T02:57:39.658Z,100433.83
2019-01-11T02:59:12.558Z,100432.62
2019-01-11T03:00:45.453Z,100429.84
2019-01-11T03:02:18.356Z,100423.84
2019-01-11T03:03:51.189Z,100425.38
2019-01-11T03:05:25.470Z,100424.35
2019-01-11T03:06:59.000Z,100415.48
2019-01-11T03:08:31.759Z,100416.82
2019-01-11T03:10:04.825Z,100417.02
2019-01-11T03:11:38.521Z,100410.63
2019-01-11T03:13:11.287Z,100406.09
2019-01-11T03:14:44.229Z,100401.19
2019-01-11T03:16:18.094Z,100399.48
2019-01-11T03:17:52.017Z,100394.31
2019-01-11T03:19:24.853Z,100378.59
2019-01-11T03:20:58.695Z,100380.72
2019-01-11T03:22:31.680Z,100388.70
2019-01-11T03:24:04.471Z,100392.72
2019-01-11T03:25:37.507Z,100390.74
2019-01-11T03:27:11.304Z,100393.23
2019-01-11T03:28:44.268Z,100380.34
2019-01-11T03:30:18.075Z,100384.16
2019-01-11T03:31:51.958Z,100377.66
2019-01-11T03:33:24.928Z,100376.42
2019-01-11T03:35:21.091Z,100380.09
2019-01-11T03:36:53.925Z,100382.70
2019-01-11T03:38:27.714Z,100384.16
2019-01-11T03:40:01.611Z,100376.00
2019-01-11T03:41:34.510Z,100382.70
2019-01-11T03:43:08.193Z,100373.31
2019-01-11T03:44:40.949Z,100370.31
2019-01-11T03:46:13.868Z,100366.42
2019-01-11T03:47:47.525Z,100359.08
2019-01-11T03:49:20.716Z,100361.89
2019-01-11T03:50:55.387Z,100352.46
2019-01-11T03:52:28.407Z,100359.17
2019-01-11T03:54:02.456Z,100354.12
2019-01-11T03:55:37.349Z,100355.39
2019-01-11T03:57:11.234Z,100357.44
2019-01-11T03:58:45.942Z,100351.76
2019-01-11T04:00:20.768Z,100364.10
2019-01-11T04:01:53.757Z,100365.80
2019-01-11T04:03:26.775Z,100361.14
2019-01-11T04:05:01.448Z,100358.78
2019-01-11T04:06:35.196Z,100357.44
2019-01-11T04:08:08.103Z,100360.75
2019-01-11T04:09:42.165Z,100346.72
2019-01-11T04:11:16.076Z,100350.42
2019-01-11T04:12:49.938Z,100355.46
2019-01-11T04:14:23.027Z,100350.42
2019-01-11T04:15:56.920Z,100354.12
2019-01-11T04:17:30.523Z,100354.76
2019-01-11T04:19:08.411Z,100351.38
2019-01-11T04:20:41.466Z,100345.69
2019-01-11T04:22:19.359Z,100348.38
2019-01-11T04:23:53.269Z,100353.42
2019-01-11T04:25:29.247Z,100361.58
2019-01-11T04:27:02.982Z,100358.08
2019-01-11T04:28:36.949Z,100365.28
2019-01-11T04:30:11.054Z,100370.33
2019-01-11T04:31:43.782Z,100373.53
2019-01-11T04:33:17.643Z,100372.37
2019-01-11T04:34:51.510Z,100363.55
2019-01-11T04:36:25.459Z,100379.59
2019-01-11T04:37:58.484Z,100372.70
2019-01-11T04:39:31.443Z,100379.91
2019-01-11T04:41:05.583Z,100373.53
2019-01-11T04:42:39.422Z,100374.04
2019-01-11T04:44:12.416Z,100372.19
2019-01-11T04:45:46.260Z,100372.19
2019-01-11T04:47:20.861Z,100371.87
2019-01-11T04:48:54.679Z,100380.55
2019-01-11T04:50:31.567Z,100374.87
2019-01-11T04:52:05.298Z,100378.85
2019-01-11T04:53:39.279Z,100368.12
2019-01-11T04:55:12.334Z,100364.42
2019-01-11T04:56:46.225Z,100368.44
2019-01-11T04:58:20.092Z,100369.78
2019-01-11T04:59:54.752Z,100371.76
2019-01-11T05:01:28.286Z,100375.27
2019-01-11T05:03:02.176Z,100384.66
2019-01-11T05:04:35.910Z,100381.46
2019-01-11T05:06:09.694Z,100377.56
2019-01-11T05:07:43.476Z,100380.13
2019-01-11T05:09:16.341Z,100380.63
2019-01-11T05:10:50.598Z,100374.99
2019-01-11T05:12:23.434Z,100374.64
2019-01-11T05:14:02.474Z,100371.95
2019-01-11T05:15:35.183Z,100383.00
2019-01-11T05:17:08.089Z,100378.46
2019-01-11T05:18:41.814Z,100370.10
2019-01-11T05:20:16.876Z,100362.37
2019-01-11T05:21:50.443Z,100363.72
2019-01-11T05:23:24.290Z,100361.67
2019-01-11T05:24:57.074Z,100365.84
2019-01-11T05:26:30.836Z,100365.02
2019-01-11T05:28:04.452Z,100371.56
2019-01-11T05:29:38.347Z,100373.06
2019-01-11T05:31:12.931Z,100373.89
2019-01-11T05:32:46.973Z,100374.72
2019-01-11T05:34:19.976Z,100368.02
2019-01-11T05:35:54.510Z,100374.65
2019-01-11T05:37:28.172Z,100374.02
2019-01-11T05:39:01.113Z,100371.33
2019-01-11T05:40:36.257Z,100371.33
2019-01-11T05:42:10.250Z,100365.45
2019-01-11T05:43:44.018Z,100367.11
2019-01-11T05:45:16.904Z,100362.26
2019-01-11T05:46:49.931Z,100357.92
2019-01-11T05:48:23.931Z,100358.44
2019-01-11T05:49:57.916Z,100352.24
2019-01-11T05:51:30.728Z,100361.63
2019-01-11T05:53:04.593Z,100360.01
2019-01-11T05:54:38.493Z,100359.26
2019-01-11T05:56:17.606Z,100359.77
2019-01-11T05:57:54.511Z,100356.97
2019-01-11T05:59:27.679Z,100367.70
2019-01-11T06:01:00.605Z,100368.69
2019-01-11T06:02:34.354Z,100365.02
2019-01-11T06:04:07.199Z,100360.13
2019-01-11T06:05:40.209Z,100362.37
2019-01-11T06:07:18.418Z,100359.77
2019-01-11T06:08:51.240Z,100364.31
2019-01-11T06:10:26.925Z,100361.11
2019-01-11T06:12:00.770Z,100358.95
2019-01-11T06:13:34.509Z,100363.33
2019-01-11T06:15:08.339Z,100352.67
2019-01-11T06:16:41.240Z,100354.29
2019-01-11T06:18:15.196Z,100356.45
2019-01-11T06:19:48.093Z,100352.44
2019-01-11T06:21:21.767Z,100364.31
2019-01-11T06:22:54.901Z,100374.72
2019-01-11T06:24:28.783Z,100356.38
2019-01-11T06:26:01.751Z,100352.59
2019-01-11T06:27:35.568Z,100372.08
2019-01-11T06:29:08.632Z,100373.42
2019-01-11T06:30:41.387Z,100379.30
2019-01-11T06:32:15.289Z,100376.93
2019-01-11T06:33:49.167Z,100379.42
2019-01-11T06:35:21.994Z,100387.46
2019-01-11T06:36:55.912Z,100383.13
2019-01-11T06:38:28.799Z,100371.05
2019-01-11T06:40:02.580Z,100382.09
2019-01-11T06:41:40.355Z,100372.15
2019-01-11T06:43:14.096Z,100388.12
2019-01-11T06:44:47.857Z,100381.11
2019-01-11T06:46:21.325Z,100390.62
2019-01-11T06:47:54.044Z,100378.42
2019-01-11T06:49:27.567Z,100374.05
2019-01-11T06:51:00.692Z,100379.77
2019-01-11T06:52:33.546Z,100377.08
2019-01-11T06:54:07.179Z,100376.73
2019-01-11T06:55:41.177Z,100384.78
2019-01-11T06:57:14.087Z,100371.12
2019-01-11T06:58:48.049Z,100376.09
2019-01-11T07:00:23.954Z,100383.13
2019-01-11T07:01:57.918Z,100379.42
2019-01-11T07:03:31.980Z,100378.91
2019-01-11T07:05:05.652Z,100387.46
2019-01-11T07:06:38.723Z,100384.27
2019-01-11T07:08:12.857Z,100386.95
2019-01-11T07:09:45.631Z,100389.31
2019-01-11T07:11:18.492Z,100383.31
2019-01-11T07:12:51.477Z,100385.48
2019-01-11T07:14:24.544Z,100375.66
2019-01-11T07:15:58.468Z,100384.78
2019-01-11T07:17:31.464Z,100382.93
2019-01-11T07:19:05.424Z,100385.80
2019-01-11T07:20:42.868Z,100394.16
2019-01-11T07:22:12.700Z,100395.19
2019-01-11T07:23:46.430Z,100395.19
2019-01-11T07:25:51.682Z,100392.51
2019-01-11T07:27:25.509Z,100394.16
2019-01-11T07:28:58.459Z,100391.16
2019-01-11T07:30:34.136Z,100387.14
2019-01-11T07:32:08.925Z,100382.80
2019-01-11T07:33:42.728Z,100391.16
2019-01-11T07:35:16.619Z,100389.51
2019-01-11T07:36:54.634Z,100383.83
2019-01-11T07:38:28.533Z,100390.22
2019-01-11T07:40:02.350Z,100389.89
2019-01-11T07:41:35.289Z,100383.83
2019-01-11T07:43:08.971Z,100383.51
2019-01-11T07:44:42.728Z,100385.16
2019-01-11T07:46:16.639Z,100381.14
2019-01-11T07:47:49.444Z,100380.13
2019-01-11T07:49:23.442Z,100385.48
2019-01-11T07:50:56.200Z,100384.14
2019-01-11T07:52:29.908Z,100383.31
2019-01-11T07:54:03.716Z,100384.97
2019-01-11T07:55:37.570Z,100381.59
2019-01-11T07:57:11.445Z,100388.12
2019-01-11T07:58:44.478Z,100383.31
2019-01-11T08:00:18.312Z,100389.08
2019-01-11T08:01:51.213Z,100375.35
2019-01-11T08:03:24.936Z,100384.42
2019-01-11T08:04:58.838Z,100390.81
2019-01-11T08:06:32.487Z,100390.81
2019-01-11T08:08:06.336Z,100392.16
2019-01-11T08:09:40.293Z,100398.98
2019-01-11T08:11:13.147Z,100400.95
2019-01-11T08:12:45.903Z,100400.77
2019-01-11T08:14:19.732Z,100413.15
2019-01-11T08:15:53.682Z,100418.20
2019-01-11T08:17:27.602Z,100410.47
2019-01-11T08:19:01.483Z,100412.16
2019-01-11T08:20:35.439Z,100420.84
2019-01-11T08:22:09.080Z,100415.98
2019-01-11T08:23:42.987Z,100413.11
2019-01-11T08:25:16.627Z,100404.11
2019-01-11T08:26:49.375Z,100418.41
2019-01-11T08:28:23.324Z,100421.44
2019-01-11T08:29:57.075Z,100415.05
2019-01-11T08:31:34.749Z,100422.70
2019-01-11T08:33:03.229Z,100419.00
2019-01-11T08:34:37.193Z,100423.34
2019-01-11T08:36:10.107Z,100413.44
2019-01-11T08:37:42.956Z,100419.13
2019-01-11T08:39:16.776Z,100417.34
2019-01-11T08:40:50.580Z,100419.00
2019-01-11T08:42:23.378Z,100424.69
2019-01-11T08:43:56.301Z,100432.38
2019-01-11T08:45:31.149Z,100431.98
2019-01-11T08:47:04.026Z,100433.77
2019-01-11T08:48:37.950Z,100435.11
2019-01-11T08:50:12.704Z,100432.62
2019-01-11T08:51:45.416Z,100426.38
2019-01-11T08:53:50.636Z,100423.30
2019-01-11T08:55:23.339Z,100411.23
2019-01-11T08:56:58.063Z,100423.74
2019-01-11T08:58:31.160Z,100422.87
2019-01-11T09:00:05.036Z,100411.03
2019-01-11T09:01:38.842Z,100418.60
2019-01-11T09:03:12.853Z,100428.00
2019-01-11T09:04:45.686Z,100419.23
2019-01-11T09:06:19.623Z,100422.48
2019-01-11T09:07:52.452Z,100430.92
2019-01-11T09:09:25.325Z,100436.09
2019-01-11T09:10:59.920Z,100431.91
2019-01-11T09:12:32.796Z,100435.93
2019-01-11T09:14:07.392Z,100439.24
2019-01-11T09:15:41.186Z,100441.54
2019-01-11T09:17:15.079Z,100431.31
2019-01-11T09:18:52.008Z,100424.55
2019-01-11T09:20:24.861Z,100432.64
2019-01-11T09:21:58.733Z,100427.59
2019-01-11T09:23:31.579Z,100435.28
2019-01-11T09:25:04.625Z,100441.17
2019-01-11T09:26:37.506Z,100453.05
2019-01-11T09:28:10.281Z,100459.88
2019-01-11T09:29:43.171Z,100460.39
2019-01-11T09:31:17.879Z,100463.72
2019-01-11T09:32:51.669Z,100462.33
2019-01-11T09:34:25.711Z,100462.72
2019-01-11T09:35:59.614Z,100465.84
2019-01-11T09:37:33.251Z,100467.61
2019-01-11T09:39:06.139Z,100468.64
2019-01-11T09:40:39.990Z,100468.39
2019-01-11T09:42:13.798Z,100467.37
2019-01-11T09:43:46.742Z,100466.45
2019-01-11T09:45:19.750Z,100470.48
2019-01-11T09:46:53.352Z,100475.49
2019-01-11T09:48:27.135Z,100475.49
2019-01-11T09:50:01.731Z,100482.20
2019-01-11T09:51:35.601Z,100477.72
2019-01-11T09:53:08.500Z,100476.72
2019-01-11T09:54:42.283Z,100479.20
2019-01-11T09:56:15.106Z,100472.86
2019-01-11T09:57:48.057Z,100482.26
2019-01-11T09:59:21.764Z,100476.05
2019-01-11T10:00:59.132Z,100476.66
2019-01-11T10:02:35.555Z,100479.45
2019-01-11T10:04:10.231Z,100475.44
2019-01-11T10:05:44.191Z,100485.08
2019-01-11T10:07:22.067Z,100479.31
2019-01-11T10:08:55.823Z,100479.47
2019-01-11T10:10:30.639Z,100474.09
2019-01-11T10:12:03.397Z,100476.15
2019-01-11T10:13:36.288Z,100466.59
2019-01-11T10:15:09.970Z,100458.73
2019-01-11T10:16:42.856Z,100466.66
2019-01-11T10:18:16.535Z,100465.01
2019-01-11T10:19:49.523Z,100470.06
2019-01-11T10:21:24.023Z,100470.70
2019-01-11T10:22:56.940Z,100476.78
2019-01-11T10:24:29.720Z,100465.05
2019-01-11T10:26:03.631Z,100476.19
2019-01-11T10:27:37.424Z,100472.16
2019-01-11T10:29:11.144Z,100460.39
2019-01-11T10:30:43.813Z,100467.58
2019-01-11T10:32:17.897Z,100463.27
2019-01-11T10:33:51.628Z,100463.27
2019-01-11T10:35:26.465Z,100464.81
2019-01-11T10:37:00.238Z,100464.81
2019-01-11T10:38:34.262Z,100461.80
2019-01-11T10:40:07.018Z,100458.56
2019-01-11T10:41:41.105Z,100463.16
2019-01-11T10:43:14.114Z,100460.47
2019-01-11T10:44:48.143Z,100458.22
2019-01-11T10:46:28.181Z,100455.81
2019-01-11T10:48:02.060Z,100457.70
2019-01-11T10:49:36.062Z,100452.30
2019-01-11T10:51:09.871Z,100462.05
2019-01-11T10:52:42.638Z,100457.08
2019-01-11T10:54:20.848Z,100456.81
2019-01-11T10:55:54.560Z,100462.14
2019-01-11T10:57:28.464Z,100443.51
2019-01-11T10:59:01.194Z,100447.10
2019-01-11T11:00:37.996Z,100458.75
2019-01-11T11:02:11.157Z,100447.66
2019-01-11T11:03:45.803Z,100443.63
2019-01-11T11:05:18.798Z,100449.39
2019-01-11T11:06:51.754Z,100452.83
2019-01-11T11:08:25.632Z,100448.48
2019-01-11T11:09:58.605Z,100457.37
2019-01-11T11:11:31.513Z,100455.39
2019-01-11T11:13:05.298Z,100453.66
2019-01-11T11:14:39.223Z,100459.10
2019-01-11T11:16:12.184Z,100457.29
2019-01-11T11:17:44.943Z,100458.51
2019-01-11T11:19:18.035Z,100454.48
2019-01-11T11:20:50.909Z,100450.66
2019-01-11T11:22:23.934Z,100449.63
2019-01-11T11:23:57.815Z,100444.77
2019-01-11T11:25:32.828Z,100429.63
2019-01-11T11:27:07.165Z,100430.09
2019-01-11T11:28:40.945Z,100436.73
2019-01-11T11:30:14.726Z,100438.22
2019-01-11T11:31:48.851Z,100426.77
2019-01-11T11:33:22.648Z,100435.39
2019-01-11T11:34:56.787Z,100443.08
2019-01-11T11:36:29.875Z,100435.14
2019-01-11T11:38:03.747Z,100429.19
2019-01-11T11:39:37.646Z,100434.00
2019-01-11T11:41:10.562Z,100434.59
2019-01-11T11:42:44.350Z,100438.34
2019-01-11T11:44:18.028Z,100420.77
2019-01-11T11:45:51.829Z,100431.91
2019-01-11T11:47:25.857Z,100425.19
2019-01-11T11:48:59.891Z,100427.36
2019-01-11T11:50:33.830Z,100421.99
2019-01-11T11:52:08.060Z,100424.28
2019-01-11T11:53:41.132Z,100430.16
2019-01-11T11:55:14.829Z,100430.44
2019-01-11T11:56:47.727Z,100425.94
2019-01-11T11:58:20.907Z,100446.20
2019-01-11T11:59:54.818Z,100434.07
2019-01-11T12:01:27.921Z,100431.11
2019-01-11T12:03:01.948Z,100428.50
2019-01-11T12:04:34.978Z,100430.98
2019-01-11T12:06:08.935Z,100422.44
2019-01-11T12:07:42.567Z,100424.92
2019-01-11T12:09:16.485Z,100430.02
2019-01-11T12:10:49.331Z,100426.96
2019-01-11T12:12:23.104Z,100427.59
2019-01-11T12:13:56.772Z,100424.59
2019-01-11T12:15:31.545Z,100422.53
2019-01-11T12:17:05.174Z,100416.27
2019-01-11T12:18:38.869Z,100418.27
2019-01-11T12:20:12.669Z,100413.58
2019-01-11T12:21:47.747Z,100405.73
2019-01-11T12:23:28.242Z,100400.95
2019-01-11T12:25:01.965Z,100398.62
2019-01-11T12:26:36.023Z,100390.52
2019-01-11T12:28:09.879Z,100400.87
2019-01-11T12:29:43.533Z,100387.13
2019-01-11T12:31:16.319Z,100401.56
2019-01-11T12:32:50.018Z,100394.64
2019-01-11T12:34:23.848Z,100384.92
2019-01-11T12:35:57.708Z,100397.41
2019-01-11T12:37:31.589Z,100394.39
2019-01-11T12:39:04.489Z,100389.73
2019-01-11T12:40:37.444Z,100390.16
2019-01-11T12:42:13.336Z,100392.50
2019-01-11T12:43:44.190Z,100386.55
2019-01-11T12:45:17.210Z,100397.52
2019-01-11T12:46:50.976Z,100388.68
2019-01-11T12:48:24.755Z,100387.02
2019-01-11T12:49:57.556Z,100387.65
2019-01-11T12:51:30.710Z,100384.45
2019-01-11T12:53:03.889Z,100373.33
2019-01-11T12:54:37.465Z,100394.69
2019-01-11T12:56:10.393Z,100395.66
2019-01-11T12:57:44.305Z,100394.69
2019-01-11T12:59:18.212Z,100388.92
2019-01-11T13:00:52.086Z,100397.86
2019-01-11T13:02:24.876Z,100392.29
2019-01-11T13:03:57.824Z,100409.61
2019-01-11T13:05:33.545Z,100403.19
2019-01-11T13:07:06.220Z,100400.41
2019-01-11T13:08:40.261Z,100390.38
2019-01-11T13:10:14.183Z,100405.16
2019-01-11T13:11:48.064Z,100396.67
2019-01-11T13:13:20.954Z,100405.36
2019-01-11T13:14:54.870Z,100400.24
2019-01-11T13:16:27.844Z,100406.08
2019-01-11T13:18:01.637Z,100395.07
2019-01-11T13:19:35.628Z,100409.91
2019-01-11T13:21:08.719Z,100398.93
2019-01-11T13:22:42.586Z,100394.59
2019-01-11T13:24:16.628Z,100400.33
2019-01-11T13:25:50.528Z,100392.98
2019-01-11T13:27:24.438Z,100394.27
2019-01-11T13:28:58.258Z,100397.23
2019-01-11T13:30:33.995Z,100407.20
2019-01-11T13:32:08.073Z,100402.98
2019-01-11T13:33:41.792Z,100397.75
2019-01-11T13:35:16.467Z,100407.98
2019-01-11T13:36:53.872Z,100403.42
2019-01-11T13:38:23.353Z,100418.77
2019-01-11T13:39:56.988Z,100407.84
2019-01-11T13:41:31.274Z,100404.53
2019-01-11T13:43:05.187Z,100405.30
2019-01-11T13:44:39.956Z,100417.25
2019-01-11T13:46:13.983Z,100414.33
2019-01-11T13:47:46.930Z,100408.69
2019-01-11T13:49:20.863Z,100412.13
2019-01-11T13:50:57.541Z,100412.57
2019-01-11T13:52:30.378Z,100396.86
2019-01-11T13:54:03.320Z,100404.40
2019-01-11T13:55:37.227Z,100413.36
2019-01-11T13:57:12.058Z,100402.98
2019-01-11T13:58:45.861Z,100401.45
2019-01-11T14:00:20.782Z,100408.94
2019-01-11T14:01:53.685Z,100409.97
2019-01-11T14:03:27.623Z,100412.49
2019-01-11T14:05:01.653Z,100399.78
2019-01-11T14:06:35.396Z,100404.72
2019-01-11T14:08:08.348Z,100403.53
2019-01-11T14:09:41.327Z,100410.24
2019-01-11T14:11:15.097Z,100409.41
2019-01-11T14:12:48.079Z,100422.31
2019-01-11T14:14:52.111Z,100421.75
2019-01-11T14:16:26.030Z,100417.73
2019-01-11T14:17:59.947Z,100422.27
2019-01-11T14:19:33.712Z,100423.64
2019-01-11T14:21:07.570Z,100422.50
2019-01-11T14:22:41.413Z,100439.34
2019-01-11T14:24:15.551Z,100428.61
2019-01-11T14:25:49.632Z,100414.95
2019-01-11T14:27:23.724Z,100415.52
2019-01-11T14:28:57.513Z,100421.58
2019-01-11T14:30:32.215Z,100413.29
2019-01-11T14:32:05.026Z,100421.34
2019-01-11T14:33:38.836Z,100419.29
2019-01-11T14:35:13.311Z,100417.31
2019-01-11T14:36:47.095Z,100427.34
2019-01-11T14:38:20.849Z,100436.20
2019-01-11T14:39:53.643Z,100426.86
2019-01-11T14:41:27.479Z,100421.65
2019-01-11T14:43:01.474Z,100441.77
2019-01-11T14:44:35.148Z,100437.59
2019-01-11T14:46:08.076Z,100435.22
2019-01-11T14:47:42.656Z,100426.41
2019-01-11T14:49:16.466Z,100430.05
2019-01-11T14:50:50.261Z,100423.34
2019-01-11T14:52:23.981Z,100426.13
2019-01-11T14:53:57.778Z,100432.92
2019-01-11T14:55:31.455Z,100422.67
2019-01-11T14:57:05.442Z,100426.80
2019-01-11T14:58:39.223Z,100431.17
2019-01-11T15:00:13.181Z,100429.83
2019-01-11T15:01:48.078Z,100431.88
2019-01-11T15:03:21.860Z,100427.86
2019-01-11T15:04:55.912Z,100428.56
2019-01-11T15:06:29.603Z,100433.25
2019-01-11T15:08:03.410Z,100428.91
2019-01-11T15:09:37.257Z,100430.13
2019-01-11T15:11:13.173Z,100432.27
2019-01-11T15:12:44.839Z,100428.08
2019-01-11T15:14:19.303Z,100437.89
2019-01-11T15:15:53.178Z,100431.28
2019-01-11T15:17:26.940Z,100424.21
2019-01-11T15:19:00.653Z,100422.59
2019-01-11T15:20:36.718Z,100408.98
2019-01-11T15:22:10.740Z,100426.50
2019-01-11T15:23:44.676Z,100415.49
2019-01-11T15:25:21.209Z,100423.02
2019-01-11T15:26:55.408Z,100422.19
2019-01-11T15:28:29.430Z,100426.92
2019-01-11T15:30:03.147Z,100428.50
2019-01-11T15:31:36.927Z,100426.95
2019-01-11T15:33:10.779Z,100428.25
2019-01-11T15:34:44.671Z,100423.52
2019-01-11T15:36:19.397Z,100431.67
2019-01-11T15:37:53.354Z,100412.91
2019-01-11T15:39:27.137Z,100416.13
2019-01-11T15:41:01.138Z,100421.20
2019-01-11T15:42:35.171Z,100421.16
2019-01-11T15:44:09.358Z,100414.06
2019-01-11T15:45:42.238Z,100425.97
2019-01-11T15:47:16.907Z,100422.98
2019-01-11T15:49:02.960Z,100426.94
2019-01-11T15:50:44.721Z,100416.91
2019-01-11T15:52:19.553Z,100422.77
2019-01-11T15:53:58.315Z,100418.75
2019-01-11T15:55:33.092Z,100412.41
2019-01-11T15:57:06.035Z,100411.38
2019-01-11T15:58:39.061Z,100419.39
2019-01-11T16:00:18.887Z,100418.48
2019-01-11T16:01:51.729Z,100421.33
2019-01-11T16:03:25.417Z,100420.22
2019-01-11T16:04:59.157Z,100418.41
2019-01-11T16:06:46.096Z,100416.03
2019-01-11T16:08:20.790Z,100423.24
2019-01-11T16:10:08.630Z,100416.85
2019-01-11T16:11:56.445Z,100414.98
2019-01-11T16:13:41.285Z,100422.27
2019-01-11T16:15:25.686Z,100423.66
2019-01-11T16:17:11.407Z,100418.41
2019-01-11T16:18:49.327Z,100426.84
2019-01-11T16:20:24.266Z,100426.45
2019-01-11T16:21:58.165Z,100428.46
2019-01-11T16:23:32.185Z,100421.44
2019-01-11T16:25:05.905Z,100418.05
2019-01-11T16:26:39.820Z,100425.27
2019-01-11T16:28:13.987Z,100425.09
2019-01-11T16:29:49.721Z,100423.04
2019-01-11T16:31:23.523Z,100424.98
2019-01-11T16:32:57.838Z,100432.80
2019-01-11T16:34:32.646Z,100436.86
2019-01-11T16:36:07.592Z,100427.66
2019-01-11T16:37:41.485Z,100424.03
2019-01-11T16:39:15.420Z,100429.11
2019-01-11T16:40:50.391Z,100439.00
2019-01-11T16:42:24.324Z,100439.32
2019-01-11T16:43:57.362Z,100440.85
2019-01-11T16:45:34.113Z,100441.58
2019-01-11T16:47:07.830Z,100443.53
2019-01-11T16:48:41.671Z,100445.58
2019-01-11T16:50:15.307Z,100436.66
2019-01-11T16:51:49.073Z,100434.50
2019-01-11T16:53:22.864Z,100444.23
2019-01-11T16:54:56.710Z,100439.19
2019-01-11T16:56:29.469Z,100443.95
2019-01-11T16:58:04.177Z,100445.61
2019-01-11T16:59:37.915Z,100441.97
2019-01-11T17:01:12.541Z,100434.56
2019-01-11T17:02:46.103Z,100445.67
2019-01-11T17:04:20.972Z,100444.55
2019-01-11T17:05:54.705Z,100444.88
2019-01-11T17:07:28.983Z,100451.05
2019-01-11T17:09:03.724Z,100447.89
2019-01-11T17:10:37.465Z,100453.72
2019-01-11T17:12:11.285Z,100452.53
2019-01-11T17:13:46.071Z,100451.30
2019-01-11T17:15:22.075Z,100463.66
2019-01-11T17:16:55.934Z,100444.98
2019-01-11T17:18:30.635Z,100446.20
2019-01-11T17:20:05.456Z,100455.33
2019-01-11T17:21:39.355Z,100449.63
2019-01-11T17:23:13.376Z,100445.83
2019-01-11T17:24:47.606Z,100458.21
2019-01-11T17:26:21.440Z,100456.94
2019-01-11T17:27:55.721Z,100461.66
2019-01-11T17:29:30.303Z,100452.95
2019-01-11T17:31:03.435Z,100464.09
2019-01-11T17:32:37.996Z,100467.13
2019-01-11T17:34:11.923Z,100469.22
2019-01-11T17:35:45.593Z,100467.01
2019-01-11T17:37:18.382Z,100464.44
2019-01-11T17:38:51.348Z,100446.50
2019-01-11T17:40:26.300Z,100452.59
2019-01-11T17:42:01.052Z,100451.12
2019-01-11T17:43:34.855Z,100449.67
2019-01-11T17:45:07.845Z,100462.05
2019-01-11T17:46:42.002Z,100459.80
2019-01-11T17:48:15.806Z,100453.80
2019-01-11T17:49:49.767Z,100456.29
2019-01-11T17:51:23.806Z,100455.65
2019-01-11T17:53:00.015Z,100456.75
2019-01-11T17:54:31.921Z,100459.11